createdAt,value
2018-06-24T00:00:54.990Z,6.85
2018-06-24T00:03:25.366Z,7.17
2018-06-24T00:05:55.539Z,6.95
2018-06-24T00:08:25.823Z,6.55
2018-06-24T00:10:55.990Z,7.90
2018-06-24T00:13:26.360Z,6.70
2018-06-24T00:15:56.532Z,6.67
2018-06-24T00:18:26.998Z,6.95
2018-06-24T00:20:57.402Z,7.28
2018-06-24T00:23:27.869Z,6.97
2018-06-24T00:25:58.381Z,6.33
2018-06-24T00:28:28.766Z,6.35
2018-06-24T00:30:58.932Z,6.62
2018-06-24T00:33:29.267Z,6.30
2018-06-24T00:35:59.426Z,5.97
2018-06-24T00:38:29.750Z,6.10
2018-06-24T00:40:59.902Z,5.70
2018-06-24T00:43:30.174Z,5.87
2018-06-24T00:46:00.408Z,6.10
2018-06-24T00:48:30.818Z,6.15
2018-06-24T00:51:01.032Z,6.22
2018-06-24T00:53:31.198Z,6.45
2018-06-24T00:56:01.691Z,6.25
2018-06-24T00:58:32.062Z,6.30
2018-06-24T01:01:02.386Z,6.47
2018-06-24T01:03:39.247Z,6.35
2018-06-24T01:06:09.848Z,5.80
2018-06-24T01:08:40.005Z,5.95
2018-06-24T01:11:10.494Z,5.92
2018-06-24T01:13:40.681Z,6.40
2018-06-24T01:16:11.149Z,6.30
2018-06-24T01:18:41.299Z,6.78
2018-06-24T01:21:11.622Z,6.65
2018-06-24T01:23:41.794Z,6.00
2018-06-24T01:26:12.167Z,6.20
2018-06-24T01:28:42.722Z,6.75
2018-06-24T01:31:13.205Z,5.90
2018-06-24T01:33:43.589Z,5.78
2018-06-24T01:36:14.254Z,7.42
2018-06-24T01:38:44.401Z,7.80
2018-06-24T01:41:14.802Z,5.58
2018-06-24T01:43:45.126Z,6.12
2018-06-24T01:46:15.279Z,7.28
2018-06-24T01:48:45.884Z,6.33
2018-06-24T01:51:16.059Z,6.45
2018-06-24T01:53:46.449Z,7.12
2018-06-24T01:56:16.609Z,6.62
2018-06-24T01:58:46.931Z,7.40
2018-06-24T02:01:17.074Z,6.72
2018-06-24T02:03:47.532Z,6.83
2018-06-24T02:06:17.703Z,7.08
2018-06-24T02:08:47.992Z,6.90
2018-06-24T02:11:18.146Z,6.75
2018-06-24T02:13:48.521Z,7.15
2018-06-24T02:16:18.718Z,7.00
2018-06-24T02:18:49.175Z,6.65
2018-06-24T02:21:19.400Z,6.20
2018-06-24T02:23:49.721Z,6.83
2018-06-24T02:26:19.881Z,6.67
2018-06-24T02:28:50.163Z,6.47
2018-06-24T02:31:20.315Z,6.20
2018-06-24T02:33:50.514Z,5.37
2018-06-24T02:36:20.553Z,6.80
2018-06-24T02:38:50.947Z,8.35
2018-06-24T02:41:21.112Z,5.72
2018-06-24T02:43:51.518Z,7.10
2018-06-24T02:46:21.434Z,7.03
2018-06-24T02:48:51.880Z,7.12
2018-06-24T02:51:22.035Z,6.15
2018-06-24T02:53:52.495Z,7.28
2018-06-24T02:56:22.868Z,7.05
2018-06-24T02:58:53.243Z,7.10
2018-06-24T03:01:23.399Z,7.03
2018-06-24T03:03:53.707Z,7.35
2018-06-24T03:06:23.852Z,7.60
2018-06-24T03:08:54.136Z,6.95
2018-06-24T03:11:24.315Z,7.12
2018-06-24T03:13:54.690Z,7.25
2018-06-24T03:16:25.033Z,7.28
2018-06-24T03:18:55.241Z,7.95
2018-06-24T03:21:25.268Z,7.03
2018-06-24T03:23:55.885Z,7.30
2018-06-24T03:26:26.099Z,8.08
2018-06-24T03:28:56.522Z,6.65
2018-06-24T03:31:26.853Z,6.83
2018-06-24T03:33:57.566Z,6.65
2018-06-24T03:36:27.836Z,6.10
2018-06-24T03:38:57.981Z,5.55
2018-06-24T03:41:28.353Z,6.35
2018-06-24T03:43:58.538Z,5.85
2018-06-24T03:46:28.906Z,5.80
2018-06-24T03:48:59.374Z,5.25
2018-06-24T03:51:29.664Z,4.92
2018-06-24T03:53:59.822Z,5.65
2018-06-24T03:56:30.308Z,4.90
2018-06-24T03:59:00.503Z,5.17
2018-06-24T04:01:31.069Z,5.33
2018-06-24T04:04:01.207Z,5.28
2018-06-24T04:06:31.602Z,5.10
2018-06-24T04:09:01.906Z,5.00
2018-06-24T04:11:38.498Z,4.33
2018-06-24T04:14:08.695Z,4.75
2018-06-24T04:16:39.052Z,5.03
2018-06-24T04:19:09.207Z,5.15
2018-06-24T04:21:39.517Z,4.30
2018-06-24T04:24:09.650Z,5.22
2018-06-24T04:26:40.015Z,5.05
2018-06-24T04:29:10.168Z,4.87
2018-06-24T04:31:40.500Z,6.15
2018-06-24T04:34:10.647Z,5.15
2018-06-24T04:36:41.043Z,5.42
2018-06-24T04:39:11.663Z,5.10
2018-06-24T04:41:42.039Z,5.83
2018-06-24T04:44:12.163Z,5.17
2018-06-24T04:46:42.538Z,4.95
2018-06-24T04:49:13.181Z,4.30
2018-06-24T04:51:43.361Z,4.60
2018-06-24T04:54:13.723Z,5.10
2018-06-24T04:56:43.883Z,4.45
2018-06-24T04:59:14.169Z,4.65
2018-06-24T05:01:44.321Z,5.70
2018-06-24T05:04:14.587Z,4.30
2018-06-24T05:06:44.758Z,4.05
2018-06-24T05:09:15.015Z,5.25
2018-06-24T05:11:45.201Z,4.95
2018-06-24T05:14:15.502Z,4.65
2018-06-24T05:16:45.683Z,4.97
2018-06-24T05:19:15.951Z,4.70
2018-06-24T05:21:46.119Z,4.70
2018-06-24T05:24:16.399Z,4.90
2018-06-24T05:26:46.563Z,4.12
2018-06-24T05:29:16.950Z,4.40
2018-06-24T05:31:47.100Z,4.37
2018-06-24T05:34:17.491Z,4.90
2018-06-24T05:36:47.650Z,4.97
2018-06-24T05:39:18.144Z,5.40
2018-06-24T05:41:48.302Z,4.55
2018-06-24T05:44:18.595Z,4.55
2018-06-24T05:46:48.766Z,4.60
2018-06-24T05:49:19.343Z,4.75
2018-06-24T05:51:49.506Z,4.72
2018-06-24T05:54:19.910Z,4.35
2018-06-24T05:56:50.310Z,5.20
2018-06-24T05:59:20.478Z,5.17
2018-06-24T06:01:50.754Z,4.70
2018-06-24T06:04:20.985Z,4.45
2018-06-24T06:06:51.263Z,5.05
2018-06-24T06:09:21.440Z,4.03
2018-06-24T06:11:52.063Z,5.42
2018-06-24T06:14:22.227Z,4.15
2018-06-24T06:16:53.010Z,4.20
2018-06-24T06:19:23.344Z,4.47
2018-06-24T06:21:53.847Z,4.70
2018-06-24T06:24:23.918Z,4.33
2018-06-24T06:26:54.418Z,4.30
2018-06-24T06:29:24.585Z,4.08
2018-06-24T06:31:55.074Z,4.30
2018-06-24T06:34:25.269Z,4.37
2018-06-24T06:36:55.650Z,4.37
2018-06-24T06:39:25.816Z,4.20
2018-06-24T06:41:56.186Z,4.10
2018-06-24T06:44:26.089Z,4.12
2018-06-24T06:46:56.398Z,3.67
2018-06-24T06:49:26.686Z,3.70
2018-06-24T06:51:57.050Z,3.42
2018-06-24T06:54:27.668Z,3.60
2018-06-24T06:56:58.010Z,3.50
2018-06-24T06:59:28.202Z,3.10
2018-06-24T07:01:58.557Z,2.37
2018-06-24T07:04:28.912Z,2.62
2018-06-24T07:06:59.030Z,2.50
2018-06-24T07:09:29.325Z,2.62
2018-06-24T07:12:00.242Z,2.50
2018-06-24T07:14:30.574Z,2.15
2018-06-24T07:17:00.756Z,2.40
2018-06-24T07:19:31.035Z,2.52
2018-06-24T07:22:01.216Z,2.30
2018-06-24T07:24:31.587Z,2.22
2018-06-24T07:27:08.497Z,2.75
2018-06-24T07:29:38.904Z,3.10
2018-06-24T07:32:09.051Z,2.60
2018-06-24T07:34:39.410Z,2.83
2018-06-24T07:37:09.575Z,3.05
2018-06-24T07:39:39.987Z,2.80
2018-06-24T07:42:10.166Z,2.45
2018-06-24T07:44:40.641Z,2.70
2018-06-24T07:47:10.787Z,2.22
2018-06-24T07:49:41.482Z,2.60
2018-06-24T07:52:11.626Z,2.50
2018-06-24T07:54:41.852Z,2.60
2018-06-24T07:57:11.937Z,2.52
2018-06-24T07:59:42.398Z,2.35
2018-06-24T08:02:12.331Z,2.95
2018-06-24T08:04:42.438Z,2.25
2018-06-24T08:07:12.514Z,1.90
2018-06-24T08:09:42.859Z,2.30
2018-06-24T08:12:13.034Z,2.30
2018-06-24T08:14:43.510Z,2.22
2018-06-24T08:17:13.667Z,1.85
2018-06-24T08:19:44.160Z,1.90
2018-06-24T08:22:14.344Z,1.90
2018-06-24T08:24:44.609Z,1.82
2018-06-24T08:27:14.849Z,2.10
2018-06-24T08:29:45.068Z,2.27
2018-06-24T08:32:15.111Z,1.92
2018-06-24T08:34:45.703Z,1.62
2018-06-24T08:37:15.899Z,1.67
2018-06-24T08:39:46.346Z,2.02
2018-06-24T08:42:16.516Z,2.10
2018-06-24T08:44:46.904Z,1.90
2018-06-24T08:47:17.263Z,1.98
2018-06-24T08:49:47.776Z,2.70
2018-06-24T08:52:18.192Z,1.70
2018-06-24T08:54:48.344Z,2.30
2018-06-24T08:57:18.758Z,2.00
2018-06-24T08:59:48.695Z,2.13
2018-06-24T09:02:18.986Z,2.17
2018-06-24T09:04:49.131Z,1.97
2018-06-24T09:07:19.520Z,1.93
2018-06-24T09:09:49.739Z,2.20
2018-06-24T09:12:20.175Z,2.30
2018-06-24T09:14:50.364Z,2.27
2018-06-24T09:17:20.757Z,2.00
2018-06-24T09:19:50.909Z,2.20
2018-06-24T09:22:21.291Z,2.37
2018-06-24T09:24:52.025Z,1.92
2018-06-24T09:27:22.227Z,1.70
2018-06-24T09:29:52.426Z,1.90
2018-06-24T09:32:22.877Z,1.80
2018-06-24T09:34:53.129Z,2.10
2018-06-24T09:37:23.741Z,2.55
2018-06-24T09:39:53.903Z,2.20
2018-06-24T09:42:24.212Z,1.75
2018-06-24T09:44:54.370Z,2.37
2018-06-24T09:47:24.847Z,2.90
2018-06-24T09:49:55.274Z,2.10
2018-06-24T09:52:25.323Z,2.47
2018-06-24T09:54:55.802Z,2.60
2018-06-24T09:57:25.964Z,2.23
2018-06-24T09:59:56.346Z,2.10
2018-06-24T10:02:26.522Z,2.37
2018-06-24T10:04:57.002Z,2.13
2018-06-24T10:07:27.169Z,2.53
2018-06-24T10:09:57.750Z,2.30
2018-06-24T10:12:27.956Z,2.40
2018-06-24T10:14:58.242Z,2.10
2018-06-24T10:17:28.511Z,2.00
2018-06-24T10:19:58.838Z,2.10
2018-06-24T10:22:29.019Z,2.17
2018-06-24T10:24:59.507Z,2.70
2018-06-24T10:27:29.670Z,1.83
2018-06-24T10:30:00.071Z,2.15
2018-06-24T10:32:30.203Z,2.00
2018-06-24T10:35:00.492Z,2.20
2018-06-24T11:13:28.016Z,3.90
2018-06-24T11:15:58.425Z,2.30
2018-06-24T11:18:35.280Z,2.10
2018-06-24T11:21:06.290Z,3.70
2018-06-24T11:23:36.972Z,2.50
2018-06-24T11:26:07.412Z,3.02
2018-06-24T11:28:37.590Z,2.40
2018-06-24T11:31:08.802Z,3.20
2018-06-24T11:33:38.843Z,3.92
2018-06-24T11:36:09.223Z,3.05
2018-06-24T11:38:39.720Z,3.25
2018-06-24T11:41:10.200Z,3.17
2018-06-24T11:43:40.347Z,3.00
2018-06-24T11:46:10.874Z,3.00
2018-06-24T11:48:41.563Z,2.90
2018-06-24T11:51:11.718Z,3.60
2018-06-24T11:53:42.005Z,3.33
2018-06-24T11:56:12.240Z,4.12
2018-06-24T11:58:42.659Z,3.05
2018-06-24T12:01:12.907Z,3.12
2018-06-24T12:03:43.211Z,3.40
2018-06-24T12:06:13.384Z,3.65
2018-06-24T12:08:43.743Z,3.22
2018-06-24T12:11:13.949Z,2.80
2018-06-24T12:13:44.296Z,2.55
2018-06-24T12:16:14.495Z,3.65
2018-06-24T12:18:44.947Z,3.47
2018-06-24T12:21:15.100Z,3.22
2018-06-24T12:23:45.593Z,2.50
2018-06-24T12:26:15.837Z,3.50
2018-06-24T12:28:46.255Z,3.55
2018-06-24T12:31:16.414Z,2.30
2018-06-24T12:33:46.791Z,4.65
2018-06-24T12:36:17.114Z,6.00
2018-06-24T12:38:47.298Z,2.00
2018-06-24T12:41:17.663Z,1.95
2018-06-24T12:43:47.835Z,5.12
2018-06-24T12:46:18.211Z,2.10
2018-06-24T12:48:48.573Z,2.20
2018-06-24T12:51:18.967Z,4.50
2018-06-24T12:53:49.113Z,4.30
2018-06-24T12:56:19.322Z,2.63
2018-06-24T12:58:49.493Z,3.20
2018-06-24T13:01:19.757Z,2.37
2018-06-24T13:03:49.911Z,3.13
2018-06-24T13:06:20.310Z,4.87
2018-06-24T13:08:50.450Z,2.07
2018-06-24T13:11:20.761Z,2.47
2018-06-24T13:13:50.949Z,2.77
2018-06-24T13:16:21.504Z,6.40
2018-06-24T13:18:51.843Z,9.70
2018-06-24T13:21:22.218Z,2.50
2018-06-24T13:23:52.322Z,3.77
2018-06-24T13:26:22.805Z,3.40
2018-06-24T13:28:53.232Z,3.17
2018-06-24T13:31:23.401Z,3.80
2018-06-24T13:33:53.882Z,3.85
2018-06-24T13:36:24.055Z,3.55
2018-06-24T13:38:54.367Z,2.80
2018-06-24T13:41:24.530Z,4.92
2018-06-24T13:43:55.029Z,2.05
2018-06-24T13:46:25.219Z,3.90
2018-06-24T13:48:55.931Z,2.60
2018-06-24T13:51:26.152Z,3.60
2018-06-24T13:53:56.689Z,3.98
2018-06-24T13:56:27.039Z,2.37
2018-06-24T13:58:57.742Z,2.67
2018-06-24T14:01:27.906Z,2.77
2018-06-24T14:03:58.459Z,2.30
2018-06-24T14:06:28.538Z,2.30
2018-06-24T14:08:58.911Z,2.80
2018-06-24T14:11:29.066Z,2.00
2018-06-24T14:13:59.463Z,2.60
2018-06-24T14:16:29.887Z,2.35
2018-06-24T14:19:00.246Z,2.15
2018-06-24T14:21:30.538Z,2.10
2018-06-24T14:24:01.090Z,1.90
2018-06-24T14:26:31.236Z,2.10
2018-06-24T14:29:01.477Z,2.30
2018-06-24T14:31:31.602Z,2.40
2018-06-24T14:34:01.994Z,3.60
2018-06-24T14:36:32.222Z,2.90
2018-06-24T14:39:02.564Z,3.60
2018-06-24T14:41:32.485Z,3.40
2018-06-24T14:44:02.835Z,4.15
2018-06-24T14:46:33.212Z,2.50
2018-06-24T14:49:03.623Z,2.85
2018-06-24T14:51:34.077Z,2.77
2018-06-24T14:54:04.316Z,2.95
2018-06-24T14:56:34.706Z,2.47
2018-06-24T14:59:04.910Z,2.42
2018-06-24T15:01:35.422Z,4.30
2018-06-24T15:04:05.603Z,3.10
2018-06-24T15:06:36.007Z,2.60
2018-06-24T15:09:09.595Z,2.92
2018-06-24T15:11:40.339Z,3.05
2018-06-24T15:14:10.554Z,4.55
2018-06-24T15:16:40.987Z,2.60
2018-06-24T15:19:11.136Z,3.00
2018-06-24T15:21:41.239Z,2.40
2018-06-24T15:24:11.271Z,2.95
2018-06-24T15:26:41.482Z,3.25
2018-06-24T15:29:11.547Z,2.60
2018-06-24T15:31:41.926Z,3.00
2018-06-24T15:34:12.075Z,2.47
2018-06-24T15:36:42.568Z,2.90
2018-06-24T15:39:13.117Z,4.10
2018-06-24T15:41:44.001Z,3.45
2018-06-24T15:44:14.015Z,3.87
2018-06-24T15:46:44.374Z,3.12
2018-06-24T15:49:14.851Z,3.12
2018-06-24T15:51:45.250Z,2.92
2018-06-24T15:54:15.486Z,3.35
2018-06-24T15:56:46.247Z,3.00
2018-06-24T15:59:16.379Z,3.00
2018-06-24T16:01:46.850Z,3.80
2018-06-24T16:04:17.271Z,3.30
2018-06-24T16:06:47.459Z,3.60
2018-06-24T16:09:23.137Z,4.45
2018-06-24T16:11:58.337Z,3.98
2018-06-24T16:14:33.927Z,3.50
2018-06-24T16:17:09.279Z,3.17
2018-06-24T16:19:44.818Z,3.58
2018-06-24T16:22:20.460Z,4.35
2018-06-24T16:24:56.120Z,3.50
2018-06-24T16:27:31.594Z,4.30
2018-06-24T16:30:06.898Z,4.08
2018-06-24T16:32:42.392Z,3.85
2018-06-24T16:35:18.107Z,3.98
2018-06-24T16:37:53.902Z,4.10
2018-06-24T16:40:29.411Z,4.03
2018-06-24T16:43:05.389Z,4.15
2018-06-24T16:45:41.224Z,4.20
2018-06-24T16:48:16.994Z,4.00
2018-06-24T16:50:52.345Z,4.05
2018-06-24T16:53:27.697Z,4.67
2018-06-24T16:56:03.203Z,3.90
2018-06-24T16:58:38.583Z,4.30
2018-06-24T17:01:14.302Z,4.12
2018-06-24T17:03:49.692Z,3.90
2018-06-24T17:06:25.304Z,3.77
2018-06-24T17:09:00.544Z,3.55
2018-06-24T17:11:36.069Z,3.40
2018-06-24T17:14:11.390Z,3.27
2018-06-24T17:16:46.865Z,4.40
2018-06-24T17:19:22.451Z,4.12
2018-06-24T17:21:58.173Z,4.53
2018-06-24T17:24:33.726Z,4.80
2018-06-24T17:27:09.359Z,4.40
2018-06-24T17:29:44.813Z,3.87
2018-06-24T17:32:20.658Z,4.25
2018-06-24T17:34:56.047Z,4.33
2018-06-24T17:37:31.554Z,3.75
2018-06-24T17:40:06.854Z,3.42
2018-06-24T17:42:42.544Z,3.52
2018-06-24T17:45:17.970Z,5.10
2018-06-24T17:47:54.659Z,4.97
2018-06-24T17:50:29.917Z,4.12
2018-06-24T17:53:05.407Z,4.72
2018-06-24T17:55:40.836Z,4.00
2018-06-24T17:58:16.444Z,4.10
2018-06-24T18:00:51.759Z,4.15
2018-06-24T18:03:27.539Z,4.45
2018-06-24T18:06:02.895Z,3.55
2018-06-24T18:08:38.441Z,3.87
2018-06-24T18:11:13.805Z,3.08
2018-06-24T18:13:49.433Z,3.85
2018-06-24T18:16:24.747Z,3.92
2018-06-24T18:19:00.227Z,5.67
2018-06-24T18:21:35.698Z,7.30
2018-06-24T18:24:11.298Z,5.30
2018-06-24T18:26:46.743Z,4.10
2018-06-24T18:29:22.292Z,6.03
2018-06-24T18:31:57.476Z,5.22
2018-06-24T18:34:33.199Z,10.25
2018-06-24T18:37:08.674Z,4.45
2018-06-24T18:39:44.192Z,4.30
2018-06-24T18:42:19.506Z,3.80
2018-06-24T18:44:54.963Z,4.90
2018-06-24T18:47:30.347Z,11.93
2018-06-24T18:50:06.071Z,4.03
2018-06-24T18:52:41.567Z,4.45
2018-06-24T18:55:17.062Z,3.08
2018-06-24T18:57:52.555Z,3.25
2018-06-24T19:00:28.148Z,3.75
2018-06-24T19:03:03.836Z,3.92
2018-06-24T19:05:39.449Z,7.92
2018-06-24T19:08:14.913Z,3.85
2018-06-24T19:10:50.447Z,6.45
2018-06-24T19:13:25.918Z,6.62
2018-06-24T19:16:01.511Z,4.60
2018-06-24T19:18:36.948Z,5.45
2018-06-24T19:21:12.572Z,4.10
2018-06-24T19:23:47.891Z,5.33
2018-06-24T19:26:23.931Z,5.55
2018-06-24T19:28:59.418Z,4.33
2018-06-24T19:31:35.026Z,7.47
2018-06-24T19:34:10.491Z,5.53
2018-06-24T19:36:46.114Z,21.20
2018-06-24T19:39:21.611Z,6.05
2018-06-24T19:41:57.267Z,14.13
2018-06-24T19:44:32.666Z,13.78
2018-06-24T19:47:08.213Z,5.60
2018-06-24T19:49:43.762Z,4.92
2018-06-24T19:52:19.405Z,12.45
2018-06-24T19:54:54.839Z,6.40
2018-06-24T19:57:30.500Z,4.83
2018-06-24T20:00:06.085Z,5.53
2018-06-24T20:02:41.701Z,10.20
2018-06-24T20:05:17.329Z,6.25
2018-06-24T20:07:53.029Z,4.60
2018-06-24T20:10:28.290Z,7.83
2018-06-24T20:13:03.742Z,16.97
2018-06-24T20:15:39.123Z,10.68
2018-06-24T20:18:14.717Z,10.15
2018-06-24T20:20:50.654Z,7.35
2018-06-24T20:23:26.238Z,8.60
2018-06-24T20:26:01.595Z,7.70
2018-06-24T20:28:37.099Z,7.53
2018-06-24T20:31:12.439Z,6.28
2018-06-24T20:33:47.794Z,4.85
2018-06-24T20:36:23.324Z,8.70
2018-06-24T20:38:58.925Z,9.83
2018-06-24T20:41:34.399Z,7.58
2018-06-24T20:44:09.987Z,5.62
2018-06-24T20:46:45.031Z,9.33
2018-06-24T20:49:20.582Z,5.97
2018-06-24T20:51:56.107Z,8.65
2018-06-24T20:54:31.731Z,10.13
2018-06-24T20:57:07.204Z,11.95
2018-06-24T20:59:42.798Z,8.20
2018-06-24T21:02:18.335Z,12.58
2018-06-24T21:04:54.114Z,9.30
2018-06-24T21:07:29.372Z,6.78
2018-06-24T21:10:04.902Z,11.28
2018-06-24T21:12:39.874Z,15.58
2018-06-24T21:15:15.592Z,18.37
2018-06-24T21:17:51.146Z,24.07
2018-06-24T21:20:26.682Z,5.80
2018-06-24T21:23:02.079Z,6.20
2018-06-24T21:25:37.484Z,6.47
2018-06-24T21:28:13.035Z,15.03
2018-06-24T21:30:48.678Z,15.83
2018-06-24T21:33:24.033Z,10.43
2018-06-24T21:35:59.567Z,10.25
2018-06-24T21:38:35.027Z,11.28
2018-06-24T21:41:10.368Z,11.20
2018-06-24T21:43:45.695Z,8.93
2018-06-24T21:46:21.054Z,6.37
2018-06-24T21:48:56.695Z,10.63
2018-06-24T21:51:32.439Z,16.62
2018-06-24T21:54:07.943Z,9.40
2018-06-24T21:56:43.632Z,6.12
2018-06-24T21:59:19.102Z,21.77
2018-06-24T22:01:54.635Z,13.88
2018-06-24T22:04:29.834Z,10.98
2018-06-24T22:07:05.416Z,8.88
2018-06-24T22:09:40.917Z,9.28
2018-06-24T22:12:16.607Z,16.42
2018-06-24T22:14:51.841Z,13.98
2018-06-24T22:17:27.912Z,11.30
2018-06-24T22:20:03.959Z,9.38
2018-06-24T22:22:39.527Z,14.15
2018-06-24T22:25:15.007Z,13.60
2018-06-24T22:27:50.613Z,12.30
2018-06-24T22:30:26.194Z,10.88
2018-06-24T22:33:01.886Z,8.53
2018-06-24T22:35:37.086Z,8.08
2018-06-24T22:38:12.605Z,9.38
2018-06-24T22:40:48.109Z,8.98
2018-06-24T22:43:23.551Z,14.15
2018-06-24T22:45:58.851Z,9.95
2018-06-24T22:48:34.611Z,11.30
2018-06-24T22:51:10.160Z,9.85
2018-06-24T22:53:45.891Z,9.00
2018-06-24T22:56:21.315Z,10.70
2018-06-24T22:59:14.293Z,8.78
2018-06-24T23:01:49.612Z,9.85
2018-06-24T23:04:25.078Z,9.10
2018-06-24T23:07:00.558Z,7.65
2018-06-24T23:09:35.971Z,7.95
2018-06-24T23:12:11.471Z,9.28
2018-06-24T23:14:47.179Z,8.78
2018-06-24T23:17:22.503Z,8.68
2018-06-24T23:19:58.160Z,11.70
2018-06-24T23:22:33.594Z,8.48
2018-06-24T23:25:09.373Z,8.38
2018-06-24T23:27:44.804Z,8.25
2018-06-24T23:30:20.453Z,7.10
2018-06-24T23:32:55.887Z,7.62
2018-06-24T23:35:31.444Z,8.10
2018-06-24T23:38:06.715Z,7.47
2018-06-24T23:40:42.438Z,6.60
2018-06-24T23:43:17.909Z,7.97
2018-06-24T23:45:53.443Z,6.30
2018-06-24T23:48:29.099Z,6.60
2018-06-24T23:51:04.931Z,5.15
2018-06-24T23:53:40.480Z,5.60
2018-06-24T23:56:16.203Z,5.12
2018-06-24T23:58:51.506Z,4.80
